createdAt,value
2018-11-23T00:00:40.553Z,0.74
2018-11-23T00:03:09.034Z,0.70
2018-11-23T00:05:37.499Z,0.73
2018-11-23T00:08:08.951Z,0.79
2018-11-23T00:10:37.598Z,0.80
2018-11-23T00:13:06.304Z,0.82
2018-11-23T00:15:34.861Z,0.82
2018-11-23T00:18:03.306Z,0.82
2018-11-23T00:20:31.836Z,0.74
2018-11-23T00:23:00.365Z,0.64
2018-11-23T00:25:29.116Z,0.54
2018-11-23T00:27:58.107Z,0.46
2018-11-23T00:30:27.969Z,0.40
2018-11-23T00:32:56.472Z,0.35
2018-11-23T00:35:26.121Z,0.34
2018-11-23T00:37:55.001Z,0.35
2018-11-23T00:40:25.510Z,0.39
2018-11-23T00:42:54.245Z,0.40
2018-11-23T00:45:22.795Z,0.45
2018-11-23T00:47:52.128Z,0.44
2018-11-23T00:50:21.701Z,0.47
2018-11-23T00:52:50.621Z,0.53
2018-11-23T00:55:20.145Z,0.58
2018-11-23T00:57:48.605Z,0.58
2018-11-23T01:00:23.260Z,0.56
2018-11-23T01:02:52.337Z,0.58
2018-11-23T01:05:20.828Z,0.61
2018-11-23T01:07:49.476Z,0.61
2018-11-23T01:10:19.099Z,0.58
2018-11-23T01:12:48.465Z,0.56
2018-11-23T01:15:16.843Z,0.59
2018-11-23T01:17:45.233Z,0.57
2018-11-23T01:20:35.799Z,0.55
2018-11-23T01:23:04.167Z,0.55
2018-11-23T01:25:32.593Z,0.50
2018-11-23T01:28:00.987Z,0.45
2018-11-23T01:30:30.663Z,0.41
2018-11-23T01:32:59.100Z,0.41
2018-11-23T01:35:27.430Z,0.43
2018-11-23T01:37:55.859Z,0.47
2018-11-23T01:40:25.572Z,0.49
2018-11-23T01:42:54.254Z,0.46
2018-11-23T01:45:22.701Z,0.42
2018-11-23T01:47:51.045Z,0.39
2018-11-23T01:50:20.779Z,0.40
2018-11-23T01:52:49.882Z,0.38
2018-11-23T01:55:18.996Z,0.42
2018-11-23T01:57:47.696Z,0.42
2018-11-23T02:00:17.748Z,0.43
2018-11-23T02:02:46.730Z,0.39
2018-11-23T02:05:15.279Z,0.40
2018-11-23T02:07:43.700Z,0.44
2018-11-23T02:10:13.427Z,0.46
2018-11-23T02:12:41.838Z,0.45
2018-11-23T02:15:15.028Z,0.50
2018-11-23T02:18:02.765Z,0.54
2018-11-23T02:20:31.205Z,0.59
2018-11-23T02:22:59.569Z,0.60
2018-11-23T02:25:27.976Z,0.56
2018-11-23T02:27:56.353Z,0.51
2018-11-23T02:30:25.828Z,0.49
2018-11-23T02:32:54.348Z,0.48
2018-11-23T02:35:22.722Z,0.47
2018-11-23T02:37:51.073Z,0.51
2018-11-23T02:40:20.343Z,0.51
2018-11-23T02:42:48.701Z,0.51
2018-11-23T02:45:18.384Z,0.48
2018-11-23T02:47:47.389Z,0.46
2018-11-23T02:50:15.807Z,0.40
2018-11-23T02:52:44.554Z,0.39
2018-11-23T02:55:14.241Z,0.33
2018-11-23T02:57:42.641Z,0.40
2018-11-23T03:00:30.390Z,0.44
2018-11-23T03:02:58.796Z,0.41
2018-11-23T03:05:27.180Z,0.44
2018-11-23T03:07:55.651Z,0.47
2018-11-23T03:10:24.140Z,0.51
2018-11-23T03:12:52.633Z,0.53
2018-11-23T03:15:21.518Z,0.56
2018-11-23T03:17:50.511Z,0.66
2018-11-23T03:20:20.197Z,0.63
2018-11-23T03:22:48.654Z,0.64
2018-11-23T03:25:17.183Z,0.59
2018-11-23T03:27:45.716Z,0.56
2018-11-23T03:30:16.313Z,0.50
2018-11-23T03:32:45.639Z,0.47
2018-11-23T03:35:14.288Z,0.42
2018-11-23T03:49:18.890Z,0.78
2018-11-23T03:51:47.838Z,0.89
2018-11-23T03:54:16.654Z,0.98
2018-11-23T03:56:45.146Z,1.09
2018-11-23T03:59:13.632Z,1.20
2018-11-23T04:01:42.117Z,1.29
2018-11-23T04:04:10.634Z,1.34
2018-11-23T04:06:39.134Z,1.40
2018-11-23T04:09:08.526Z,1.46
2018-11-23T05:00:22.713Z,1.25
2018-11-23T05:02:51.178Z,1.24
2018-11-23T05:05:19.676Z,1.30
2018-11-23T05:07:48.719Z,1.30
2018-11-23T05:10:17.855Z,1.30
2018-11-23T05:12:46.732Z,1.25
2018-11-23T05:15:16.612Z,1.18
2018-11-23T05:17:46.195Z,1.11
2018-11-23T05:20:15.241Z,1.10
2018-11-23T05:22:43.980Z,1.05
2018-11-23T05:25:13.738Z,1.06
2018-11-23T05:27:42.247Z,1.09
2018-11-23T05:30:12.967Z,1.08
2018-11-23T05:32:41.440Z,1.08
2018-11-23T05:46:07.611Z,1.19
2018-11-23T05:48:36.034Z,1.20
2018-11-23T05:51:04.538Z,1.23
2018-11-23T05:53:32.965Z,1.25
2018-11-23T05:56:01.358Z,1.29
2018-11-23T05:58:29.760Z,1.31
2018-11-23T06:00:58.184Z,1.35
2018-11-23T06:03:26.634Z,1.31
2018-11-23T06:05:54.918Z,1.28
2018-11-23T06:08:23.325Z,1.21
2018-11-23T06:10:51.765Z,1.13
2018-11-23T06:13:20.179Z,1.02
2018-11-23T06:15:48.561Z,0.94
2018-11-23T06:18:16.929Z,0.84
2018-11-23T06:20:45.375Z,0.78
2018-11-23T06:23:13.768Z,0.72
2018-11-23T06:25:44.371Z,0.62
2018-11-23T06:28:12.861Z,0.53
2018-11-23T06:30:41.234Z,0.47
2018-11-23T06:33:32.657Z,0.46
2018-11-23T06:36:01.012Z,0.40
2018-11-23T06:38:29.422Z,0.35
2018-11-23T06:40:57.770Z,0.39
2018-11-23T06:43:26.177Z,0.40
2018-11-23T06:45:54.564Z,0.39
2018-11-23T06:48:23.230Z,0.39
2018-11-23T06:50:51.630Z,0.36
2018-11-23T06:53:20.037Z,0.34
2018-11-23T06:55:48.466Z,0.33
2018-11-23T06:58:16.849Z,0.18
2018-11-23T07:00:45.285Z,0.25
2018-11-23T07:03:13.602Z,0.21
2018-11-23T07:05:42.059Z,0.23
2018-11-23T07:08:11.293Z,0.20
2018-11-23T07:10:39.751Z,0.23
2018-11-23T07:13:08.692Z,0.22
2018-11-23T07:15:37.191Z,0.21
2018-11-23T07:18:06.498Z,0.18
2018-11-23T07:20:34.949Z,0.17
2018-11-23T07:23:03.307Z,0.19
2018-11-23T07:25:31.735Z,0.23
2018-11-23T07:28:00.122Z,0.28
2018-11-23T07:30:29.153Z,0.32
2018-11-23T07:32:57.715Z,0.38
2018-11-23T07:35:26.198Z,0.45
2018-11-23T07:37:54.733Z,0.54
2018-11-23T07:41:01.896Z,0.61
2018-11-23T07:43:30.448Z,0.66
2018-11-23T07:45:58.916Z,0.74
2018-11-23T07:48:27.369Z,0.77
2018-11-23T07:50:55.910Z,0.79
2018-11-23T07:53:24.316Z,0.84
2018-11-23T07:55:52.812Z,0.94
2018-11-23T07:58:21.462Z,1.03
2018-11-23T08:00:50.043Z,1.08
2018-11-23T08:03:18.519Z,1.22
2018-11-23T08:05:47.065Z,1.35
2018-11-23T08:13:47.495Z,1.78
2018-11-23T08:16:15.945Z,1.87
2018-11-23T08:18:44.529Z,2.04
2018-11-23T08:21:13.001Z,2.20
2018-11-23T08:23:41.477Z,2.24
2018-11-23T08:26:09.978Z,2.31
2018-11-23T08:28:39.053Z,2.31
2018-11-23T08:31:07.584Z,2.27
2018-11-23T08:33:36.147Z,2.30
2018-11-23T08:36:04.647Z,2.36
2018-11-23T08:38:33.171Z,2.41
2018-11-23T08:41:01.656Z,2.47
2018-11-23T08:43:30.108Z,2.46
2018-11-23T08:45:58.642Z,2.46
2018-11-23T08:48:30.149Z,2.52
2018-11-23T08:50:58.604Z,2.56
2018-11-23T08:58:58.215Z,2.77
2018-11-23T09:01:26.704Z,2.88
2018-11-23T09:03:55.558Z,2.97
2018-11-23T09:06:24.067Z,3.08
2018-11-23T09:08:52.728Z,3.12
2018-11-23T09:11:21.197Z,3.21
2018-11-23T09:13:50.650Z,3.29
2018-11-23T09:16:19.156Z,3.39
2018-11-23T09:18:47.599Z,3.50
2018-11-23T09:21:16.108Z,3.60
2018-11-23T09:23:44.686Z,3.74
2018-11-23T09:26:13.155Z,3.83
2018-11-23T09:28:41.659Z,3.90
2018-11-23T09:31:10.140Z,3.98
2018-11-23T09:33:38.898Z,4.06
2018-11-23T09:36:07.369Z,4.13
2018-11-23T09:38:35.842Z,4.23
2018-11-23T09:41:04.371Z,4.33
2018-11-23T09:43:32.918Z,4.42
2018-11-23T09:46:01.635Z,4.51
2018-11-23T09:48:30.371Z,4.63
2018-11-23T09:50:58.857Z,4.71
2018-11-23T09:53:27.464Z,4.82
2018-11-23T09:55:55.973Z,4.93
2018-11-23T09:58:24.589Z,4.96
2018-11-23T10:00:53.194Z,5.06
2018-11-23T10:03:21.609Z,5.08
2018-11-23T10:05:50.115Z,5.19
2018-11-23T10:08:18.612Z,5.27
2018-11-23T10:10:47.123Z,5.31
2018-11-23T10:13:15.678Z,5.40
2018-11-23T10:15:44.249Z,5.54
2018-11-23T10:18:12.768Z,5.65
2018-11-23T10:20:41.225Z,5.74
2018-11-23T10:31:27.913Z,6.14
2018-11-23T10:33:56.264Z,6.22
2018-11-23T10:36:24.734Z,6.27
2018-11-23T10:38:53.178Z,6.36
2018-11-23T10:41:21.602Z,6.47
2018-11-23T10:43:49.955Z,6.54
2018-11-23T10:46:18.365Z,6.54
2018-11-23T10:48:46.809Z,6.65
2018-11-23T10:51:15.181Z,6.68
2018-11-23T10:53:43.565Z,6.76
2018-11-23T10:56:11.945Z,6.85
2018-11-23T10:58:40.411Z,6.87
2018-11-23T11:01:27.783Z,6.93
2018-11-23T11:04:15.231Z,7.00
2018-11-23T11:07:02.982Z,7.02
2018-11-23T11:09:31.373Z,7.08
2018-11-23T11:11:59.784Z,7.19
2018-11-23T11:14:28.171Z,7.22
2018-11-23T11:16:56.627Z,7.29
2018-11-23T11:19:25.224Z,7.28
2018-11-23T11:21:53.689Z,7.35
2018-11-23T11:24:22.157Z,7.40
2018-11-23T11:26:50.544Z,7.39
2018-11-23T11:29:18.913Z,7.45
2018-11-23T11:31:47.318Z,7.46
2018-11-23T11:34:15.790Z,7.51
2018-11-23T11:36:44.433Z,7.52
2018-11-23T11:39:13.472Z,7.56
2018-11-23T11:41:41.875Z,7.61
2018-11-23T11:44:10.369Z,7.66
2018-11-23T11:46:38.811Z,7.72
2018-11-23T11:49:07.283Z,7.78
2018-11-23T11:51:35.586Z,7.83
2018-11-23T11:54:04.046Z,7.88
2018-11-23T11:56:32.446Z,7.96
2018-11-23T11:59:00.846Z,8.00
2018-11-23T12:01:29.209Z,8.07
2018-11-23T12:03:58.048Z,8.03
2018-11-23T12:06:26.427Z,8.12
2018-11-23T12:08:54.884Z,8.23
2018-11-23T12:11:23.463Z,8.28
2018-11-23T12:13:52.128Z,8.29
2018-11-23T12:16:20.536Z,8.36
2018-11-23T12:18:48.905Z,8.37
2018-11-23T12:21:17.281Z,8.45
2018-11-23T12:23:45.708Z,8.52
2018-11-23T12:26:14.385Z,8.49
2018-11-23T12:28:42.792Z,8.53
2018-11-23T12:31:11.297Z,8.55
2018-11-23T12:33:40.011Z,8.62
2018-11-23T12:36:08.423Z,8.66
2018-11-23T12:38:40.169Z,8.73
2018-11-23T12:41:05.347Z,8.76
2018-11-23T12:43:33.821Z,8.83
2018-11-23T12:46:02.181Z,8.91
2018-11-23T12:48:30.607Z,8.99
2018-11-23T12:50:59.033Z,9.03
2018-11-23T12:53:27.725Z,9.09
2018-11-23T12:55:56.368Z,9.09
2018-11-23T12:58:24.803Z,9.15
2018-11-23T13:00:53.490Z,9.25
2018-11-23T13:03:21.976Z,9.32
2018-11-23T13:05:50.359Z,9.44
2018-11-23T13:08:18.731Z,9.51
2018-11-23T13:10:47.104Z,9.60
2018-11-23T13:13:15.510Z,9.65
2018-11-23T13:15:43.992Z,9.72
2018-11-23T13:18:12.468Z,9.80
2018-11-23T13:20:40.897Z,9.85
2018-11-23T13:23:09.294Z,9.92
2018-11-23T13:25:37.685Z,9.94
2018-11-23T13:28:06.376Z,9.90
2018-11-23T13:30:36.354Z,9.97
2018-11-23T13:33:04.938Z,10.34
2018-11-23T13:35:33.369Z,10.85
2018-11-23T13:38:01.812Z,11.11
2018-11-23T13:40:30.706Z,11.25
2018-11-23T13:42:59.911Z,11.35
2018-11-23T13:45:29.744Z,11.18
2018-11-23T13:47:58.125Z,11.18
2018-11-23T13:50:27.432Z,11.17
2018-11-23T13:52:57.367Z,11.77
2018-11-23T13:55:25.787Z,11.94
2018-11-23T13:57:54.194Z,11.57
2018-11-23T14:00:23.953Z,11.23
2018-11-23T14:02:52.387Z,11.64
2018-11-23T14:05:22.196Z,12.17
2018-11-23T14:07:51.958Z,12.10
2018-11-23T14:10:21.810Z,11.14
2018-11-23T14:13:11.575Z,10.42
2018-11-23T14:15:38.018Z,10.00
2018-11-23T14:18:06.419Z,10.06
2018-11-23T14:20:34.810Z,9.97
2018-11-23T14:23:03.196Z,9.81
2018-11-23T14:25:32.230Z,9.68
2018-11-23T14:28:00.712Z,9.42
2018-11-23T14:30:30.653Z,9.13
2018-11-23T14:32:59.311Z,8.88
2018-11-23T14:35:29.178Z,8.66
2018-11-23T14:37:58.385Z,8.52
2018-11-23T14:40:26.840Z,8.39
2018-11-23T14:42:55.598Z,8.19
2018-11-23T14:45:29.055Z,8.06
2018-11-23T14:47:58.308Z,7.89
2018-11-23T14:50:28.241Z,7.80
2018-11-23T14:52:57.511Z,7.65
2018-11-23T14:55:26.273Z,7.59
2018-11-23T14:57:54.877Z,7.39
2018-11-23T15:00:26.404Z,7.14
2018-11-23T15:02:55.903Z,6.92
2018-11-23T15:05:24.236Z,6.85
2018-11-23T15:07:52.615Z,6.75
2018-11-23T15:10:22.485Z,6.60
2018-11-23T15:12:52.117Z,6.50
2018-11-23T15:15:24.786Z,6.37
2018-11-23T15:17:53.792Z,6.31
2018-11-23T15:20:42.342Z,6.26
2018-11-23T15:23:15.025Z,6.17
2018-11-23T15:25:43.451Z,6.06
2018-11-23T15:28:12.417Z,5.94
2018-11-23T15:30:41.480Z,5.83
2018-11-23T15:33:11.200Z,5.75
2018-11-23T15:35:40.199Z,5.69
2018-11-23T15:38:10.594Z,5.57
2018-11-23T15:40:39.002Z,5.44
2018-11-23T15:43:09.050Z,5.27
2018-11-23T15:45:37.551Z,5.12
2018-11-23T15:48:06.758Z,4.97
2018-11-23T15:50:36.494Z,4.81
2018-11-23T15:53:05.202Z,4.69
2018-11-23T15:55:34.729Z,4.57
2018-11-23T15:58:07.517Z,4.50
2018-11-23T16:00:39.901Z,4.42
2018-11-23T16:03:09.426Z,4.32
2018-11-23T16:05:38.080Z,4.35
2018-11-23T16:08:30.051Z,4.40
2018-11-23T16:10:58.052Z,4.39
2018-11-23T16:13:26.567Z,4.39
2018-11-23T16:15:54.931Z,4.36
2018-11-23T16:18:23.302Z,4.34
2018-11-23T16:20:51.706Z,4.31
2018-11-23T16:23:21.137Z,4.25
2018-11-23T16:25:50.200Z,4.18
2018-11-23T16:28:18.645Z,4.12
2018-11-23T16:30:48.528Z,4.08
2018-11-23T16:33:20.989Z,4.09
2018-11-23T16:35:49.395Z,4.04
2018-11-23T16:38:19.373Z,4.04
2018-11-23T16:40:49.313Z,4.08
2018-11-23T16:43:17.758Z,4.10
2018-11-23T16:45:46.515Z,4.10
2018-11-23T16:48:15.729Z,4.09
2018-11-23T16:50:44.809Z,4.07
2018-11-23T16:53:13.342Z,4.07
2018-11-23T16:55:41.791Z,4.06
2018-11-23T16:58:11.414Z,4.08
2018-11-23T17:00:41.421Z,4.13
2018-11-23T17:03:11.509Z,4.19
2018-11-23T17:05:59.052Z,4.23
2018-11-23T17:08:27.707Z,4.21
2018-11-23T17:10:56.097Z,4.21
2018-11-23T17:13:24.479Z,4.18
2018-11-23T17:15:52.877Z,4.18
2018-11-23T17:18:21.255Z,4.20
2018-11-23T17:20:49.739Z,4.22
2018-11-23T17:23:18.118Z,4.27
2018-11-23T17:25:46.520Z,4.26
2018-11-23T17:28:15.783Z,4.24
2018-11-23T17:30:44.262Z,4.26
2018-11-23T17:33:13.436Z,4.29
2018-11-23T17:35:41.949Z,4.33
2018-11-23T17:38:10.354Z,4.36
2018-11-23T17:40:40.059Z,4.36
2018-11-23T17:43:08.844Z,4.37
2018-11-23T17:45:56.641Z,4.39
2018-11-23T17:48:25.010Z,4.40
2018-11-23T17:50:57.670Z,4.30
2018-11-23T17:53:26.095Z,4.22
2018-11-23T17:55:54.548Z,4.09
2018-11-23T17:58:22.953Z,4.02
2018-11-23T18:00:51.427Z,3.98
2018-11-23T18:03:19.882Z,3.98
2018-11-23T18:05:48.359Z,3.91
2018-11-23T18:08:16.746Z,3.83
2018-11-23T18:10:45.118Z,3.78
2018-11-23T18:13:13.545Z,3.73
2018-11-23T18:15:42.000Z,3.66
2018-11-23T18:18:10.392Z,3.65
2018-11-23T18:20:38.777Z,3.60
2018-11-23T18:23:07.252Z,3.57
2018-11-23T18:25:37.368Z,3.56
2018-11-23T18:28:06.181Z,3.53
2018-11-23T18:30:35.053Z,3.56
2018-11-23T18:33:07.203Z,3.52
2018-11-23T18:35:35.634Z,3.47
2018-11-23T18:38:04.031Z,3.43
2018-11-23T18:40:37.317Z,3.47
2018-11-23T18:43:00.834Z,3.49
2018-11-23T18:45:29.193Z,3.53
2018-11-23T18:47:57.624Z,3.56
2018-11-23T18:50:26.009Z,3.62
2018-11-23T18:52:54.417Z,3.64
2018-11-23T18:55:22.814Z,3.70
2018-11-23T18:57:51.643Z,3.68
2018-11-23T19:00:19.945Z,3.73
2018-11-23T19:02:48.526Z,3.70
2018-11-23T19:05:36.291Z,3.63
2018-11-23T19:08:04.823Z,3.58
2018-11-23T19:10:33.175Z,3.54
2018-11-23T19:13:01.854Z,3.55
2018-11-23T19:15:30.234Z,3.58
2018-11-23T19:17:58.684Z,3.60
2018-11-23T19:20:26.987Z,3.66
2018-11-23T19:22:55.696Z,3.70
2018-11-23T19:25:24.160Z,3.64
2018-11-23T19:27:52.554Z,3.59
2018-11-23T19:30:28.027Z,3.56
2018-11-23T19:32:51.108Z,3.52
2018-11-23T19:35:19.478Z,3.49
2018-11-23T19:37:47.957Z,3.45
2018-11-23T19:40:16.518Z,3.45
2018-11-23T19:42:45.465Z,3.48
2018-11-23T19:45:33.727Z,3.44
2018-11-23T19:48:02.478Z,3.43
2018-11-23T19:50:31.985Z,3.38
2018-11-23T19:53:00.391Z,3.34
2018-11-23T19:55:29.057Z,3.29
2018-11-23T19:57:57.747Z,3.22
2018-11-23T20:00:26.844Z,3.18
2018-11-23T20:02:55.284Z,3.14
2018-11-23T20:05:23.898Z,3.07
2018-11-23T20:08:12.468Z,3.02
2018-11-23T20:10:41.243Z,2.99
2018-11-23T20:13:09.664Z,2.93
2018-11-23T20:15:38.373Z,2.86
2018-11-23T20:18:07.401Z,2.80
2018-11-23T20:20:35.831Z,2.79
2018-11-23T20:23:04.385Z,2.79
2018-11-23T20:25:33.011Z,2.73
2018-11-23T20:28:01.472Z,2.70
2018-11-23T20:30:29.842Z,2.71
2018-11-23T20:32:58.236Z,2.64
2018-11-23T20:35:26.623Z,2.75
2018-11-23T20:37:55.014Z,2.76
2018-11-23T20:40:23.914Z,2.76
2018-11-23T20:42:52.394Z,2.70
2018-11-23T20:45:20.796Z,2.69
2018-11-23T20:47:49.178Z,2.73
2018-11-23T20:50:18.140Z,2.76
2018-11-23T20:52:46.530Z,2.74
2018-11-23T20:55:34.899Z,2.68
2018-11-23T20:58:22.635Z,2.67
2018-11-23T21:00:51.035Z,2.65
2018-11-23T21:03:19.561Z,2.61
2018-11-23T21:05:48.544Z,2.59
2018-11-23T21:08:17.012Z,2.57
2018-11-23T21:10:45.489Z,2.55
2018-11-23T21:13:14.013Z,2.53
2018-11-23T21:15:43.302Z,2.50
2018-11-23T21:18:12.055Z,2.52
2018-11-23T21:20:41.105Z,2.50
2018-11-23T21:23:09.792Z,2.47
2018-11-23T21:25:38.542Z,2.43
2018-11-23T21:28:07.057Z,2.41
2018-11-23T21:30:35.517Z,2.37
2018-11-23T21:33:04.490Z,2.32
2018-11-23T21:35:33.000Z,2.30
2018-11-23T21:38:02.021Z,2.28
2018-11-23T21:40:30.489Z,2.26
2018-11-23T21:42:59.055Z,2.27
2018-11-23T21:45:27.500Z,2.24
2018-11-23T21:47:56.008Z,2.18
2018-11-23T21:50:25.902Z,2.18
2018-11-23T21:52:53.423Z,2.18
2018-11-23T21:55:22.743Z,2.18
2018-11-23T21:57:51.860Z,2.24
2018-11-23T22:00:20.551Z,2.23
2018-11-23T22:02:49.071Z,2.19
2018-11-23T22:05:17.628Z,2.22
2018-11-23T22:07:46.102Z,2.23
2018-11-23T22:10:18.787Z,2.19
2018-11-23T22:12:47.180Z,2.16
2018-11-23T22:15:19.743Z,2.13
2018-11-23T22:17:48.587Z,2.09
2018-11-23T22:20:18.102Z,2.09
2018-11-23T22:22:46.482Z,2.07
2018-11-23T22:25:15.818Z,2.05
2018-11-23T22:27:44.282Z,2.04
2018-11-23T22:30:16.612Z,2.01
2018-11-23T22:32:45.062Z,1.98
2018-11-23T22:35:13.720Z,1.99
2018-11-23T22:37:42.139Z,1.99
2018-11-23T22:40:30.179Z,2.01
2018-11-23T22:42:59.219Z,2.04
2018-11-23T22:45:27.867Z,2.06
2018-11-23T22:47:56.305Z,2.09
2018-11-23T22:50:24.997Z,2.12
2018-11-23T22:52:53.370Z,2.15
2018-11-23T22:55:22.042Z,2.15
2018-11-23T22:57:50.500Z,2.20
2018-11-23T23:00:41.878Z,2.19
2018-11-23T23:03:10.255Z,2.19
2018-11-23T23:05:39.837Z,2.18
2018-11-23T23:08:07.204Z,2.19
2018-11-23T23:10:36.133Z,2.19
2018-11-23T23:13:05.046Z,2.17
2018-11-23T23:15:33.542Z,2.19
2018-11-23T23:18:02.074Z,2.19
2018-11-23T23:20:30.959Z,2.19
2018-11-23T23:22:59.708Z,2.20
2018-11-23T23:25:28.288Z,2.20
2018-11-23T23:27:56.706Z,2.22
2018-11-23T23:30:25.205Z,2.21
2018-11-23T23:32:53.631Z,2.21
2018-11-23T23:35:22.577Z,2.19
2018-11-23T23:37:51.023Z,2.16
2018-11-23T23:40:20.285Z,2.12
2018-11-23T23:42:49.457Z,2.10
2018-11-23T23:45:18.654Z,2.09
2018-11-23T23:47:47.174Z,2.07
2018-11-23T23:58:54.093Z,1.92
